Time;durP1;ratioP1;P1;durP2;ratioP2;P2;SDS_P1;SDS_P2;PMS_P1;PMS_P2;Temp;Humidity;BMP_temperature;BMP_pressure;BME280_temperature;BME280_humidity;BME280_pressure;Samples;Min_cycle;Max_cycle;Signal;HPM_P1;HPM_P2
2023/11/04 00:00:59;;;;;;;9.20;2.55;;;;;;;7.41;75.32;96295.78;5086431;28;20065;-79
2023/11/04 00:03:24;;;;;;;6.38;2.60;;;;;;;7.57;74.87;96291.81;5090388;28;20100;-79
2023/11/04 00:05:50;;;;;;;7.82;3.35;;;;;;;7.45;74.17;96291.47;5071090;28;20181;-79
2023/11/04 00:08:15;;;;;;;9.52;2.65;;;;;;;7.55;73.96;96297.44;5091247;28;20040;-79
2023/11/04 00:10:41;;;;;;;7.15;2.47;;;;;;;7.53;74.97;96291.59;5086368;28;20494;-79
2023/11/04 00:13:07;;;;;;;7.75;2.35;;;;;;;7.52;74.13;96287.38;5067653;28;20043;-80
2023/11/04 00:15:32;;;;;;;5.32;2.15;;;;;;;7.52;74.53;96295.34;5109045;27;20024;-80
2023/11/04 00:17:59;;;;;;;11.65;2.67;;;;;;;7.54;74.58;96287.88;5079271;28;20438;-79
2023/11/04 00:20:27;;;;;;;13.00;4.25;;;;;;;7.52;74.55;96284.72;5088396;28;20032;-79
2023/11/04 00:22:54;;;;;;;6.13;2.80;;;;;;;7.50;74.56;96278.13;5091182;28;20032;-80
2023/11/04 00:25:19;;;;;;;10.27;3.65;;;;;;;7.56;74.49;96277.75;5080616;28;20093;-80
2023/11/04 00:27:45;;;;;;;5.28;3.60;;;;;;;7.52;74.45;96281.28;5076679;28;20036;-80
2023/11/04 00:30:11;;;;;;;12.57;3.95;;;;;;;7.51;74.62;96285.78;5079327;28;20027;-80
2023/11/04 00:32:37;;;;;;;16.55;4.40;;;;;;;7.41;75.04;96264.75;5088113;28;20032;-80
2023/11/04 00:35:04;;;;;;;8.38;2.90;;;;;;;7.42;74.41;96276.16;5066014;28;20518;-80
2023/11/04 00:37:30;;;;;;;6.95;2.80;;;;;;;7.50;74.37;96267.53;5093194;27;20476;-80
2023/11/04 00:39:55;;;;;;;6.95;2.70;;;;;;;7.45;74.11;96272.91;5073479;28;20093;-80
2023/11/04 00:42:21;;;;;;;11.27;2.60;;;;;;;7.15;76.29;96276.06;5076549;28;20028;-81
2023/11/04 00:44:46;;;;;;;6.82;2.42;;;;;;;7.37;75.31;96277.03;5071003;28;20042;-80
2023/11/04 00:47:12;;;;;;;10.15;2.90;;;;;;;7.31;75.44;96280.84;5066458;28;20441;-80
2023/11/04 00:49:37;;;;;;;5.20;2.40;;;;;;;7.23;75.43;96272.75;5073296;28;20024;-80
2023/11/04 00:52:03;;;;;;;7.32;2.17;;;;;;;7.44;74.44;96287.25;5084558;28;20058;-80
2023/11/04 00:54:28;;;;;;;6.53;2.17;;;;;;;7.30;75.46;96273.94;5078397;28;20096;-80
2023/11/04 00:56:54;;;;;;;10.45;2.65;;;;;;;6.99;75.12;96269.44;5066155;28;20031;-80
2023/11/04 00:59:19;;;;;;;15.15;3.33;;;;;;;7.32;75.29;96279.75;5070440;28;20060;-81
2023/11/04 01:01:44;;;;;;;4.70;2.25;;;;;;;7.26;75.75;96277.47;5053410;28;20028;-80
2023/11/04 01:04:10;;;;;;;6.88;2.20;;;;;;;7.08;76.22;96267.66;5086902;28;20039;-80
2023/11/04 01:06:35;;;;;;;7.05;2.33;;;;;;;7.04;76.35;96274.63;5070571;28;20032;-80
2023/11/04 01:09:02;;;;;;;12.05;2.85;;;;;;;6.77;76.78;96262.81;5083654;28;20379;-80
2023/11/04 01:11:28;;;;;;;12.38;3.72;;;;;;;7.04;77.05;96271.97;5063665;28;20032;-80
2023/11/04 01:13:54;;;;;;;12.43;2.40;;;;;;;7.12;76.26;96260.72;5072615;28;20058;-80
2023/11/04 01:16:20;;;;;;;7.55;2.28;;;;;;;7.08;76.35;96265.81;5084494;28;20031;-80
2023/11/04 01:18:45;;;;;;;10.10;2.17;;;;;;;7.04;76.37;96264.81;5071603;28;20452;-80
2023/11/04 01:21:10;;;;;;;7.03;2.25;;;;;;;6.83;77.44;96263.56;5067032;28;20065;-80
2023/11/04 01:23:36;;;;;;;5.90;2.20;;;;;;;7.10;76.53;96268.97;5079266;28;20040;-80
2023/11/04 01:26:02;;;;;;;5.82;2.30;;;;;;;6.87;76.65;96258.47;5085319;28;20039;-80
2023/11/04 01:28:27;;;;;;;7.63;3.28;;;;;;;7.11;76.46;96259.94;5089166;28;20032;-80
2023/11/04 01:30:53;;;;;;;9.43;2.00;;;;;;;7.09;76.30;96254.13;5081259;28;20419;-80
2023/11/04 01:33:18;;;;;;;4.15;2.00;;;;;;;7.09;75.83;96256.78;5079138;28;20112;-80
2023/11/04 01:35:44;;;;;;;3.95;2.17;;;;;;;7.05;76.09;96255.81;5076209;28;20079;-80
2023/11/04 01:38:09;;;;;;;3.10;1.77;;;;;;;7.19;75.50;96261.94;5065171;28;20039;-80
2023/11/04 01:40:34;;;;;;;9.93;2.20;;;;;;;7.02;76.33;96248.41;5085307;28;20025;-80
2023/11/04 01:43:00;;;;;;;9.15;2.13;;;;;;;7.18;75.56;96246.31;5072570;28;20031;-80
2023/11/04 01:45:25;;;;;;;4.55;2.38;;;;;;;7.07;75.70;96251.00;5052884;28;20123;-80
2023/11/04 01:47:51;;;;;;;6.65;1.95;;;;;;;7.16;75.71;96262.53;5065066;28;20036;-80
2023/11/04 01:50:16;;;;;;;7.13;1.92;;;;;;;6.98;76.27;96249.28;5089511;28;20027;-80
2023/11/04 01:52:43;;;;;;;5.22;1.67;;;;;;;7.15;76.05;96255.63;5089394;28;20032;-80
2023/11/04 01:55:09;;;;;;;3.45;1.98;;;;;;;7.19;75.90;96261.13;5066130;28;20144;-80
2023/11/04 01:57:35;;;;;;;3.25;1.70;;;;;;;7.01;76.25;96248.72;5081461;28;20028;-80
2023/11/04 02:00:02;;;;;;;3.83;1.52;;;;;;;7.07;76.29;96250.19;5083470;28;20038;-80
2023/11/04 02:02:30;;;;;;;3.22;1.90;;;;;;;7.20;75.52;96249.47;5067361;28;20028;-80
2023/11/04 02:04:55;;;;;;;4.22;1.70;;;;;;;7.08;76.35;96249.91;5086208;28;20420;-81
2023/11/04 02:07:25;;;;;;;6.78;1.90;;;;;;;6.93;75.73;96241.38;5065566;28;20035;-80
2023/11/04 02:09:51;;;;;;;8.13;2.08;;;;;;;7.13;75.89;96246.38;5073148;28;20031;-80
2023/11/04 02:12:17;;;;;;;1.88;1.20;;;;;;;7.15;75.63;96254.84;5080724;28;20483;-80
2023/11/04 02:14:50;;;;;;;5.53;1.77;;;;;;;7.08;76.14;96247.25;5083991;28;20025;-80
2023/11/04 02:17:15;;;;;;;5.43;1.58;;;;;;;6.99;76.29;96259.59;5070383;28;20035;-80
2023/11/04 02:19:40;;;;;;;3.00;1.45;;;;;;;6.94;76.43;96253.59;5089976;28;20119;-80
2023/11/04 02:22:06;;;;;;;4.22;1.50;;;;;;;7.21;75.74;96248.38;5052349;28;20040;-80
2023/11/04 02:24:32;;;;;;;5.03;1.50;;;;;;;7.15;75.73;96250.31;5083158;28;20040;-80
2023/11/04 02:26:57;;;;;;;2.75;1.67;;;;;;;7.14;75.88;96247.97;5064308;28;20028;-80
2023/11/04 02:29:22;;;;;;;8.30;2.08;;;;;;;7.15;75.82;96242.38;5083821;28;20153;-80
2023/11/04 02:31:48;;;;;;;7.00;1.63;;;;;;;7.10;75.86;96244.31;5085707;28;20488;-80
2023/11/04 02:34:14;;;;;;;2.17;1.35;;;;;;;7.13;76.13;96249.03;5076007;28;20618;-80
2023/11/04 02:36:39;;;;;;;5.18;1.92;;;;;;;7.07;76.29;96244.91;5069864;28;20025;-80
2023/11/04 02:39:05;;;;;;;3.65;1.65;;;;;;;7.09;75.89;96248.84;5064834;28;20039;-80
2023/11/04 02:41:30;;;;;;;6.05;2.08;;;;;;;7.11;75.90;96241.38;5070062;28;20395;-80
2023/11/04 02:43:55;;;;;;;4.75;2.00;;;;;;;7.03;76.21;96231.44;5077086;28;20054;-80
2023/11/04 02:46:21;;;;;;;7.28;1.85;;;;;;;7.20;75.94;96238.84;5054759;28;20044;-80
2023/11/04 02:48:46;;;;;;;4.13;2.38;;;;;;;7.18;75.88;96241.00;5070120;28;20036;-80
2023/11/04 02:51:11;;;;;;;5.70;1.70;;;;;;;7.10;76.11;96236.38;5076357;28;20035;-80
2023/11/04 02:53:37;;;;;;;3.35;2.08;;;;;;;7.08;76.46;96241.16;5061820;28;20078;-80
2023/11/04 02:56:02;;;;;;;2.83;1.77;;;;;;;7.12;76.46;96250.88;5085959;28;20040;-80
2023/11/04 02:58:28;;;;;;;7.80;2.40;;;;;;;7.03;76.14;96236.75;5080789;28;20035;-80
2023/11/04 03:00:53;;;;;;;2.22;1.60;;;;;;;6.98;76.34;96217.47;5085189;28;20032;-80
2023/11/04 03:03:18;;;;;;;2.92;1.80;;;;;;;6.85;76.73;96231.44;5062420;28;20032;-80
2023/11/04 03:05:44;;;;;;;4.80;2.00;;;;;;;7.07;76.15;96227.13;5070717;28;20059;-80
2023/11/04 03:08:09;;;;;;;3.15;1.92;;;;;;;7.10;76.02;96239.03;5081186;28;20112;-80
2023/11/04 03:10:35;;;;;;;4.47;1.65;;;;;;;7.17;76.23;96232.25;5085507;28;20037;-80
2023/11/04 03:13:00;;;;;;;3.38;2.10;;;;;;;7.12;76.53;96228.91;5073125;28;20450;-80
2023/11/04 03:15:25;;;;;;;5.15;2.20;;;;;;;7.03;76.16;96218.19;5081961;28;20020;-80
2023/11/04 03:17:51;;;;;;;4.68;2.33;;;;;;;7.07;76.67;96229.78;5067004;28;20139;-80
2023/11/04 03:20:16;;;;;;;6.50;2.03;;;;;;;7.09;75.97;96235.56;5075359;28;20121;-80
2023/11/04 03:22:42;;;;;;;8.07;2.22;;;;;;;7.16;76.23;96230.69;5084705;28;20028;-80
2023/11/04 03:25:09;;;;;;;6.60;2.45;;;;;;;7.14;76.35;96235.47;5065754;28;20094;-80
2023/11/04 03:27:34;;;;;;;2.10;1.70;;;;;;;7.08;76.54;96234.00;5072285;28;20036;-80
2023/11/04 03:30:00;;;;;;;2.47;1.80;;;;;;;6.90;76.56;96215.47;5089363;28;20031;-80
2023/11/04 03:32:25;;;;;;;7.18;2.00;;;;;;;7.14;76.37;96224.88;5083609;28;20085;-80
2023/11/04 03:34:51;;;;;;;6.45;2.28;;;;;;;7.00;76.90;96210.00;5083531;28;20495;-81
2023/11/04 03:37:16;;;;;;;3.67;1.58;;;;;;;7.02;76.09;96221.09;5068135;28;20020;-80
2023/11/04 03:39:41;;;;;;;2.72;1.70;;;;;;;7.14;76.60;96216.16;5091919;28;20425;-80
2023/11/04 03:42:07;;;;;;;2.28;2.00;;;;;;;7.22;76.87;96226.88;5090552;28;20032;-80
2023/11/04 03:44:32;;;;;;;4.22;1.95;;;;;;;7.20;76.17;96213.13;5085728;28;20036;-80
2023/11/04 03:46:58;;;;;;;3.33;2.00;;;;;;;7.31;75.94;96221.69;5075044;28;20028;-81
2023/11/04 03:49:23;;;;;;;2.00;1.52;;;;;;;7.17;76.38;96224.28;5087426;28;20040;-81
2023/11/04 03:51:48;;;;;;;2.88;1.92;;;;;;;7.19;75.83;96214.19;5081478;28;20107;-80
2023/11/04 03:54:14;;;;;;;4.25;2.15;;;;;;;7.07;77.41;96213.06;5079376;28;20163;-80
2023/11/04 03:56:39;;;;;;;2.15;1.83;;;;;;;7.21;76.43;96222.63;5084140;28;20027;-80
2023/11/04 03:59:05;;;;;;;2.65;1.63;;;;;;;7.28;75.80;96215.09;5087114;28;20067;-80
2023/11/04 04:01:38;;;;;;;2.20;2.00;;;;;;;7.34;75.53;96211.25;5075967;28;20028;-80
2023/11/04 04:04:04;;;;;;;3.08;1.92;;;;;;;7.10;76.09;96200.00;5067831;28;20066;-80
2023/11/04 04:06:29;;;;;;;3.80;1.90;;;;;;;7.33;76.18;96214.22;5081146;28;20028;-80
2023/11/04 04:08:55;;;;;;;8.77;1.77;;;;;;;7.20;76.17;96210.47;5082953;28;20665;-80
2023/11/04 04:11:22;;;;;;;2.50;1.80;;;;;;;7.29;76.75;96202.63;5080623;28;20115;-80
2023/11/04 04:13:48;;;;;;;3.50;1.83;;;;;;;7.30;75.98;96210.28;5086994;28;20379;-80
2023/11/04 04:16:14;;;;;;;4.38;2.08;;;;;;;7.31;75.97;96205.75;5061013;28;20028;-80
2023/11/04 04:18:39;;;;;;;2.53;1.90;;;;;;;7.30;75.42;96202.31;5084939;28;20085;-80
2023/11/04 04:21:05;;;;;;;3.05;2.05;;;;;;;7.41;75.69;96203.72;5091021;28;20449;-80
2023/11/04 04:23:30;;;;;;;2.58;2.00;;;;;;;7.46;76.22;96205.50;5085517;28;20028;-80
2023/11/04 04:25:56;;;;;;;3.80;2.25;;;;;;;7.09;76.10;96193.16;5089137;28;20043;-80
2023/11/04 04:28:21;;;;;;;2.03;1.83;;;;;;;7.49;74.89;96202.28;5052071;28;20059;-80
2023/11/04 04:30:47;;;;;;;2.70;1.90;;;;;;;7.43;75.54;96198.09;5088121;28;20032;-80
2023/11/04 04:33:12;;;;;;;1.65;1.55;;;;;;;7.47;75.85;96191.94;5084266;28;20054;-80
2023/11/04 04:35:37;;;;;;;2.35;1.48;;;;;;;7.40;75.39;96185.44;5086116;28;20065;-80
2023/11/04 04:38:03;;;;;;;2.05;1.73;;;;;;;7.47;75.58;96191.13;5085363;28;20032;-80
2023/11/04 04:40:28;;;;;;;2.03;1.80;;;;;;;7.40;75.29;96190.75;5069804;28;20758;-80
2023/11/04 04:42:53;;;;;;;7.45;1.77;;;;;;;7.44;75.14;96189.09;5085878;28;20044;-80
2023/11/04 04:45:20;;;;;;;2.28;1.48;;;;;;;7.49;74.94;96184.47;5077966;28;20027;-80
2023/11/04 04:47:45;;;;;;;1.75;1.65;;;;;;;7.39;74.98;96181.19;5063752;28;20185;-80
2023/11/04 04:50:10;;;;;;;4.47;1.80;;;;;;;7.35;75.23;96175.72;5090454;28;20045;-80
2023/11/04 04:52:36;;;;;;;2.00;1.67;;;;;;;7.38;75.66;96169.03;5082789;28;20539;-80
2023/11/04 04:55:02;;;;;;;3.65;2.03;;;;;;;7.30;75.36;96157.22;5084199;28;20050;-80
2023/11/04 04:57:28;;;;;;;3.88;1.40;;;;;;;7.25;75.70;96154.66;5090403;28;20028;-80
2023/11/04 04:59:53;;;;;;;4.45;1.90;;;;;;;7.35;75.21;96164.31;5106282;28;20027;-80
2023/11/04 05:02:19;;;;;;;2.28;1.60;;;;;;;6.93;75.60;96152.03;5084948;28;20024;-79
2023/11/04 05:04:45;;;;;;;3.22;1.65;;;;;;;7.06;76.42;96161.09;5079752;28;20037;-80
2023/11/04 05:07:10;;;;;;;1.73;1.63;;;;;;;7.17;76.06;96157.19;5064837;28;20037;-80
2023/11/04 05:09:35;;;;;;;2.38;1.67;;;;;;;7.17;75.40;96157.19;5082076;28;20051;-80
2023/11/04 05:12:01;;;;;;;3.03;1.55;;;;;;;7.15;75.59;96144.22;5082199;28;20498;-80
2023/11/04 05:14:26;;;;;;;1.70;1.50;;;;;;;7.02;76.10;96139.69;5053183;28;20060;-80
2023/11/04 05:16:51;;;;;;;1.35;1.25;;;;;;;7.27;75.38;96146.41;5046193;28;20028;-80
2023/11/04 05:19:17;;;;;;;2.08;1.65;;;;;;;7.01;76.29;96132.78;5066567;28;20032;-80
2023/11/04 05:21:42;;;;;;;1.25;1.20;;;;;;;7.08;75.92;96127.91;5068396;28;20032;-80
2023/11/04 05:24:08;;;;;;;4.00;1.85;;;;;;;7.12;74.84;96144.03;5080985;28;20028;-80
2023/11/04 05:26:37;;;;;;;1.30;1.20;;;;;;;7.06;75.59;96140.66;5050619;28;20036;-80
2023/11/04 05:29:03;;;;;;;6.00;1.23;;;;;;;6.85;76.17;96144.75;5085517;28;20100;-80
2023/11/04 05:31:28;;;;;;;2.10;1.80;;;;;;;6.99;76.23;96140.25;5084832;28;20027;-80
2023/11/04 05:33:54;;;;;;;2.45;1.60;;;;;;;7.10;75.77;96135.59;5080550;28;20040;-80
2023/11/04 05:36:19;;;;;;;1.80;1.70;;;;;;;7.12;75.54;96138.75;5060320;28;20380;-80
2023/11/04 05:38:45;;;;;;;1.10;1.00;;;;;;;7.06;75.71;96139.88;5061911;28;20610;-80
2023/11/04 05:41:11;;;;;;;1.50;1.30;;;;;;;7.02;75.46;96145.00;5075474;28;20663;-80
2023/11/04 05:43:38;;;;;;;3.08;1.02;;;;;;;7.23;75.11;96148.09;5082002;28;20038;-80
2023/11/04 05:46:06;;;;;;;1.27;1.27;;;;;;;6.89;76.07;96143.09;5078360;28;20040;-80
2023/11/04 05:48:32;;;;;;;4.03;1.60;;;;;;;6.89;75.83;96129.84;5083454;28;20024;-81
2023/11/04 05:50:57;;;;;;;2.22;1.20;;;;;;;7.05;76.04;96127.72;5072020;28;20037;-80
2023/11/04 05:53:22;;;;;;;4.57;1.27;;;;;;;6.73;76.28;96141.75;5045925;28;20030;-80
2023/11/04 05:55:48;;;;;;;2.50;1.75;;;;;;;6.78;76.91;96141.69;5071102;28;20035;-80
2023/11/04 05:58:13;;;;;;;1.23;1.00;;;;;;;6.91;75.95;96151.53;5051986;28;20150;-80
2023/11/04 06:00:39;;;;;;;1.85;1.27;;;;;;;7.00;75.24;96138.41;5085041;28;20031;-80
2023/11/04 06:03:06;;;;;;;1.38;1.27;;;;;;;6.78;76.18;96133.72;5079641;28;20097;-80
2023/11/04 06:05:32;;;;;;;2.17;1.17;;;;;;;6.76;76.35;96117.34;5055306;28;20020;-80
2023/11/04 06:07:57;;;;;;;1.35;1.27;;;;;;;6.83;76.26;96120.41;5076598;28;20060;-80
2023/11/04 06:10:22;;;;;;;1.80;1.30;;;;;;;7.04;75.94;96120.81;5085567;28;20483;-80
2023/11/04 06:12:48;;;;;;;1.52;1.42;;;;;;;7.01;75.31;96118.78;5053855;28;20487;-80
2023/11/04 06:15:13;;;;;;;1.30;1.20;;;;;;;7.05;75.59;96128.50;5085697;28;20040;-80
2023/11/04 06:17:38;;;;;;;3.30;1.60;;;;;;;6.97;75.90;96126.50;5078852;28;20029;-80
2023/11/04 06:20:05;;;;;;;2.70;1.70;;;;;;;6.90;76.10;96109.41;5080681;28;20028;-80
2023/11/04 06:22:32;;;;;;;2.55;1.30;;;;;;;6.96;75.75;96113.56;5077491;28;20099;-80
2023/11/04 06:24:58;;;;;;;1.33;1.23;;;;;;;7.04;76.44;96121.63;5073659;28;20036;-80
2023/11/04 06:27:23;;;;;;;1.40;1.30;;;;;;;6.99;75.96;96118.28;5081923;28;20032;-80
2023/11/04 06:29:49;;;;;;;1.30;1.20;;;;;;;6.97;76.29;96123.09;5084186;28;20107;-81
2023/11/04 06:32:14;;;;;;;1.30;1.20;;;;;;;6.94;76.08;96119.16;5082002;28;20029;-80
2023/11/04 06:34:40;;;;;;;4.03;1.33;;;;;;;6.80;76.34;96113.81;5065707;28;20217;-80
2023/11/04 06:37:06;;;;;;;1.00;1.00;;;;;;;7.02;75.80;96122.97;5066683;28;20016;-80
2023/11/04 06:39:32;;;;;;;1.85;1.17;;;;;;;6.90;76.73;96120.81;5088631;28;20035;-80
2023/11/04 06:41:57;;;;;;;1.77;1.30;;;;;;;6.98;77.07;96119.34;5083364;28;20024;-80
2023/11/04 06:44:22;;;;;;;2.33;1.48;;;;;;;6.88;77.11;96119.53;5071343;28;20510;-80
2023/11/04 06:46:48;;;;;;;3.88;1.20;;;;;;;6.84;77.08;96106.06;5074135;28;20104;-80
2023/11/04 06:49:14;;;;;;;1.70;1.60;;;;;;;6.89;76.97;96121.09;5071925;28;20050;-80
2023/11/04 06:51:39;;;;;;;3.88;1.48;;;;;;;6.90;77.06;96109.41;5087802;28;20029;-80
2023/11/04 06:54:05;;;;;;;3.45;1.90;;;;;;;7.00;76.70;96104.72;5076991;28;20028;-80
2023/11/04 06:56:31;;;;;;;1.23;1.17;;;;;;;7.00;76.49;96095.97;5072505;28;20047;-80
2023/11/04 06:58:56;;;;;;;1.05;1.05;;;;;;;7.04;76.81;96096.97;5089520;28;20051;-80
2023/11/04 07:01:22;;;;;;;4.07;1.85;;;;;;;6.78;77.42;96094.75;5079594;28;20129;-80
2023/11/04 07:03:47;;;;;;;1.40;1.30;;;;;;;7.10;77.69;96095.81;5082372;28;20035;-80
2023/11/04 07:06:17;;;;;;;3.38;1.60;;;;;;;7.06;77.40;96084.97;5082078;28;20562;-80
2023/11/04 07:08:43;;;;;;;1.63;1.40;;;;;;;7.16;76.22;96087.47;5103969;27;20075;-80
2023/11/04 07:11:11;;;;;;;1.58;1.45;;;;;;;7.17;77.25;96088.22;5082777;28;20040;-80
2023/11/04 07:13:46;;;;;;;5.50;1.55;;;;;;;7.27;77.55;96083.50;5083789;28;20050;-80
2023/11/04 07:16:13;;;;;;;1.50;1.40;;;;;;;7.19;76.76;96081.56;5088866;28;20028;-80
2023/11/04 07:18:42;;;;;;;1.90;1.80;;;;;;;7.19;77.40;96080.75;5083018;28;20028;-80
2023/11/04 07:21:08;;;;;;;2.28;1.33;;;;;;;7.25;76.74;96075.06;5083240;28;20028;-80
2023/11/04 07:23:33;;;;;;;2.25;1.85;;;;;;;7.16;77.02;96066.25;5085697;28;20021;-80
2023/11/04 07:25:59;;;;;;;1.50;1.40;;;;;;;7.35;77.25;96080.19;5071020;28;20407;-80
2023/11/04 07:28:34;;;;;;;3.10;1.52;;;;;;;7.18;77.33;96080.00;5071700;28;20100;-79
2023/11/04 07:30:59;;;;;;;5.82;1.88;;;;;;;7.04;77.92;96073.88;5083863;28;20051;-79
2023/11/04 07:33:25;;;;;;;2.65;1.60;;;;;;;7.07;78.34;96070.66;5071159;28;20029;-79
2023/11/04 07:35:50;;;;;;;1.75;1.40;;;;;;;7.13;78.25;96084.59;5085727;28;20036;-80
2023/11/04 07:38:16;;;;;;;2.30;1.45;;;;;;;7.08;78.13;96076.72;5085816;28;20493;-80
2023/11/04 07:40:42;;;;;;;4.15;1.55;;;;;;;7.28;77.22;96079.78;5085228;28;20519;-80
2023/11/04 07:43:08;;;;;;;1.67;1.58;;;;;;;7.37;77.08;96086.00;5086184;28;20131;-80
2023/11/04 07:45:33;;;;;;;2.15;1.02;;;;;;;7.26;77.65;96071.34;5072611;28;20036;-80
2023/11/04 07:47:58;;;;;;;1.80;1.23;;;;;;;7.21;78.15;96076.75;5090566;28;20125;-80
2023/11/04 07:50:24;;;;;;;3.95;1.40;;;;;;;7.40;77.92;96071.34;5087009;28;20040;-80
2023/11/04 07:52:49;;;;;;;2.08;1.20;;;;;;;7.40;77.07;96074.75;5058344;28;20027;-80
2023/11/04 07:55:15;;;;;;;1.27;1.17;;;;;;;7.20;78.58;96053.16;5082974;28;20032;-80
2023/11/04 07:57:40;;;;;;;2.40;1.40;;;;;;;7.30;78.48;96058.28;5055239;28;20479;-79
2023/11/04 08:00:10;;;;;;;3.92;1.83;;;;;;;7.29;78.51;96043.44;5085283;28;20063;-80
2023/11/04 08:02:40;;;;;;;2.03;1.58;;;;;;;7.13;79.14;96044.81;5084334;28;20028;-80
2023/11/04 08:05:05;;;;;;;2.78;2.05;;;;;;;7.27;78.86;96035.00;5087463;28;20049;-80
2023/11/04 08:07:31;;;;;;;2.33;1.70;;;;;;;7.64;77.73;96036.63;5068231;28;20036;-80
2023/11/04 08:09:58;;;;;;;4.40;1.90;;;;;;;7.34;78.91;96033.50;5082055;28;20032;-80
2023/11/04 08:12:24;;;;;;;2.53;1.70;;;;;;;7.43;78.64;96033.59;5083281;28;20020;-80
2023/11/04 08:14:50;;;;;;;2.05;1.55;;;;;;;7.56;78.57;96036.22;5085384;28;20035;-80
2023/11/04 08:17:15;;;;;;;1.60;1.50;;;;;;;7.52;78.82;96026.50;5091576;28;20391;-80
2023/11/04 08:19:40;;;;;;;2.17;1.42;;;;;;;7.55;78.34;96025.91;5071743;28;20085;-80
2023/11/04 08:22:07;;;;;;;2.90;1.23;;;;;;;7.72;78.20;96023.44;5083264;28;20107;-80
2023/11/04 08:24:33;;;;;;;2.17;1.40;;;;;;;7.64;78.62;96031.31;5100200;28;20463;-80
2023/11/04 08:26:58;;;;;;;2.00;1.35;;;;;;;7.91;78.36;96031.22;5073734;28;20035;-80
2023/11/04 08:29:23;;;;;;;5.70;1.70;;;;;;;7.98;77.90;96032.41;5080615;28;20028;-80
2023/11/04 08:31:49;;;;;;;3.15;1.52;;;;;;;8.14;76.97;96028.31;5084281;28;20036;-80
2023/11/04 08:34:14;;;;;;;1.77;1.63;;;;;;;8.21;76.30;96033.22;5051450;28;20127;-80
2023/11/04 08:36:40;;;;;;;2.88;1.58;;;;;;;8.17;77.00;96026.91;5084728;28;20115;-80
2023/11/04 08:39:07;;;;;;;1.20;1.10;;;;;;;8.18;76.75;96025.81;5092818;28;20028;-80
2023/11/04 08:41:32;;;;;;;3.08;1.55;;;;;;;8.11;77.35;96009.50;5071154;28;20054;-80
2023/11/04 08:43:57;;;;;;;2.95;2.65;;;;;;;8.02;77.45;96008.66;5088037;28;20032;-80
2023/11/04 08:46:23;;;;;;;2.03;1.17;;;;;;;8.11;76.84;96012.97;5083178;28;20039;-80
2023/11/04 08:48:48;;;;;;;3.17;1.63;;;;;;;8.08;76.93;96007.47;5071140;28;20028;-80
2023/11/04 08:51:13;;;;;;;3.50;1.40;;;;;;;8.07;77.98;96004.03;5072357;28;20088;-81
2023/11/04 08:53:39;;;;;;;3.22;1.48;;;;;;;8.04;77.50;95995.88;5082193;28;20028;-80
2023/11/04 08:56:06;;;;;;;2.50;1.52;;;;;;;8.06;77.56;95988.41;5063863;28;20116;-80
2023/11/04 08:58:34;;;;;;;2.03;1.05;;;;;;;8.18;76.96;95994.75;5084090;28;20078;-80
2023/11/04 09:01:00;;;;;;;1.20;1.10;;;;;;;8.15;77.63;96003.31;5085866;28;20054;-80
2023/11/04 09:03:26;;;;;;;1.30;1.20;;;;;;;8.16;77.17;95985.50;5067313;28;20037;-80
2023/11/04 09:05:52;;;;;;;2.40;1.30;;;;;;;8.22;76.78;95993.03;5087656;28;20027;-80
2023/11/04 09:08:17;;;;;;;2.33;1.27;;;;;;;8.12;77.69;95981.88;5085354;28;20028;-80
2023/11/04 09:10:42;;;;;;;1.40;1.30;;;;;;;8.25;77.11;95986.34;5074417;28;20042;-80
2023/11/04 09:13:08;;;;;;;4.55;1.33;;;;;;;8.25;77.13;95996.97;5069533;28;20062;-80
2023/11/04 09:15:34;;;;;;;1.10;1.00;;;;;;;8.21;76.61;95996.78;5064873;28;20416;-80
2023/11/04 09:18:01;;;;;;;2.38;1.70;;;;;;;8.22;76.99;95994.91;5084585;28;20032;-80
2023/11/04 09:20:27;;;;;;;2.95;1.63;;;;;;;8.26;77.05;95999.34;5088233;28;20353;-80
2023/11/04 09:22:54;;;;;;;2.90;1.33;;;;;;;8.28;76.95;95996.38;5086064;28;20178;-80
2023/11/04 09:25:20;;;;;;;1.10;1.00;;;;;;;8.42;76.62;95991.78;5089982;28;20031;-80
2023/11/04 09:27:46;;;;;;;1.13;1.02;;;;;;;8.48;76.26;95977.28;5065817;28;20028;-80
2023/11/04 09:30:12;;;;;;;2.13;1.38;;;;;;;8.32;76.71;95960.16;5067461;28;20553;-81
2023/11/04 09:32:38;;;;;;;3.60;1.83;;;;;;;8.41;76.69;95963.63;5074341;28;20028;-81
2023/11/04 09:35:03;;;;;;;1.67;1.20;;;;;;;8.29;77.21;95956.25;5089307;28;20024;-81
2023/11/04 09:37:29;;;;;;;2.97;1.40;;;;;;;8.53;76.02;95955.09;5083712;28;20111;-80
2023/11/04 09:39:54;;;;;;;1.52;1.17;;;;;;;8.62;76.51;95959.38;5071346;28;20060;-80
2023/11/04 09:42:21;;;;;;;1.48;1.10;;;;;;;8.47;76.44;95946.47;5085507;28;20032;-80
2023/11/04 09:44:46;;;;;;;4.13;0.93;;;;;;;8.48;76.76;95960.53;5066964;28;20034;-80
2023/11/04 09:47:11;;;;;;;1.60;1.20;;;;;;;8.52;76.47;95953.53;5080981;28;20024;-80
2023/11/04 09:49:37;;;;;;;1.10;1.00;;;;;;;8.54;76.46;95949.47;5067298;28;20033;-80
2023/11/04 09:52:08;;;;;;;3.05;1.20;;;;;;;8.66;76.78;95963.00;5082001;28;20123;-80
2023/11/04 09:54:36;;;;;;;1.17;0.93;;;;;;;8.64;76.02;95951.88;5084337;28;20032;-80
2023/11/04 09:57:02;;;;;;;2.03;1.33;;;;;;;8.65;76.04;95947.34;5088642;28;20024;-80
2023/11/04 09:59:28;;;;;;;0.93;0.93;;;;;;;8.56;76.76;95939.31;5080651;28;20115;-80
2023/11/04 10:01:53;;;;;;;2.95;1.20;;;;;;;8.63;76.29;95933.56;5072128;28;20036;-80
2023/11/04 10:04:19;;;;;;;4.45;0.98;;;;;;;8.65;76.58;95940.13;5063536;28;20020;-80
2023/11/04 10:06:45;;;;;;;7.68;2.08;;;;;;;8.55;75.94;95948.38;5068962;28;20036;-80
2023/11/04 10:09:11;;;;;;;4.28;1.40;;;;;;;8.48;76.95;95948.03;5089588;28;20114;-80
2023/11/04 10:11:37;;;;;;;2.40;1.05;;;;;;;8.50;76.34;95937.88;5063365;28;20024;-81
2023/11/04 10:14:02;;;;;;;5.15;2.80;;;;;;;8.49;76.08;95935.53;5079734;28;20460;-80
2023/11/04 10:16:29;;;;;;;2.63;1.83;;;;;;;8.53;76.74;95924.00;5089632;28;20038;-81
2023/11/04 10:18:54;;;;;;;4.05;2.53;;;;;;;8.57;76.02;95924.16;5084683;28;20032;-80
2023/11/04 10:21:21;;;;;;;6.45;3.90;;;;;;;8.64;75.87;95922.63;5068924;28;20479;-80
2023/11/04 10:23:47;;;;;;;6.47;3.47;;;;;;;8.54;76.52;95908.84;5071200;28;20843;-80
2023/11/04 10:26:15;;;;;;;5.13;3.40;;;;;;;8.63;75.92;95913.06;5090619;28;20055;-80
2023/11/04 10:28:40;;;;;;;5.03;1.98;;;;;;;8.52;76.60;95903.03;5090179;28;20047;-80
2023/11/04 10:31:06;;;;;;;4.10;2.50;;;;;;;8.65;76.30;95894.19;5083648;28;20108;-80
2023/11/04 10:33:36;;;;;;;5.15;2.53;;;;;;;8.70;76.18;95902.78;5091728;28;20023;-80
2023/11/04 10:36:08;;;;;;;2.70;1.63;;;;;;;8.65;76.49;95913.53;5084321;28;20409;-80
2023/11/04 10:38:37;;;;;;;2.45;1.90;;;;;;;8.67;76.44;95899.97;5086001;28;20081;-80
2023/11/04 10:41:05;;;;;;;2.53;1.52;;;;;;;8.64;76.75;95904.03;5086617;28;20039;-80
2023/11/04 10:44:04;;;;;;;2.55;1.90;;;;;;;8.76;75.98;95890.13;5090907;28;20035;-80
2023/11/04 10:46:49;;;;;;;2.78;1.35;;;;;;;8.77;76.61;95897.81;5086972;28;20024;-80
2023/11/04 10:49:22;;;;;;;3.53;2.03;;;;;;;8.55;77.16;95887.25;5079981;28;20036;-81
2023/11/04 10:52:03;;;;;;;2.92;1.63;;;;;;;8.76;76.02;95885.59;5090681;28;20028;-81
2023/11/04 10:54:54;;;;;;;3.72;1.77;;;;;;;8.58;76.45;95885.84;5082695;28;20107;-80
2023/11/04 10:57:31;;;;;;;2.35;1.80;;;;;;;8.80;76.72;95883.88;5081176;28;20012;-80
2023/11/04 11:00:19;;;;;;;2.50;1.50;;;;;;;8.69;76.15;95887.91;5080766;28;20108;-81
2023/11/04 11:02:46;;;;;;;3.95;1.70;;;;;;;8.64;76.58;95873.97;5077738;28;20588;-80
2023/11/04 11:05:21;;;;;;;4.10;2.95;;;;;;;8.62;77.46;95868.97;5087649;28;20534;-81
2023/11/04 11:07:47;;;;;;;3.03;2.10;;;;;;;8.71;77.10;95855.72;5087052;28;20163;-80
2023/11/04 11:10:15;;;;;;;3.97;2.55;;;;;;;8.67;76.07;95855.53;5084339;28;20075;-81
2023/11/04 11:12:56;;;;;;;2.47;2.05;;;;;;;8.72;76.17;95842.09;5079691;28;20035;-80
2023/11/04 11:15:23;;;;;;;2.92;1.98;;;;;;;8.85;76.95;95851.81;5086876;28;20031;-80
2023/11/04 11:17:56;;;;;;;7.07;3.47;;;;;;;8.82;76.44;95835.72;5079398;28;20029;-81
2023/11/04 11:20:35;;;;;;;3.20;2.20;;;;;;;8.81;76.40;95834.13;5088968;28;20024;-80
2023/11/04 11:23:08;;;;;;;4.68;3.17;;;;;;;8.89;76.67;95831.50;5086144;28;20044;-81
2023/11/04 11:25:38;;;;;;;5.50;3.00;;;;;;;8.98;76.57;95840.25;5094560;28;20372;-80
2023/11/04 11:28:26;;;;;;;7.40;3.33;;;;;;;8.95;75.98;95819.59;5070024;28;20028;-81
2023/11/04 11:30:55;;;;;;;3.80;2.58;;;;;;;8.93;75.97;95807.72;5076560;28;20024;-80
2023/11/04 11:33:25;;;;;;;3.67;2.15;;;;;;;9.13;75.45;95798.34;5083654;28;20044;-81
2023/11/04 11:36:02;;;;;;;4.78;2.10;;;;;;;9.24;75.92;95794.28;5081453;28;20028;-81
2023/11/04 11:38:29;;;;;;;2.80;2.60;;;;;;;9.43;75.32;95786.75;5066031;28;20048;-82